createdAt,value
2018-10-21T00:02:09.068Z,89.86
2018-10-21T00:04:35.993Z,88.90
2018-10-21T00:07:02.905Z,89.32
2018-10-21T00:09:29.876Z,88.51
2018-10-21T00:11:56.818Z,88.56
2018-10-21T00:14:23.759Z,88.92
2018-10-21T00:16:50.697Z,88.92
2018-10-21T00:19:17.592Z,88.93
2018-10-21T00:21:44.517Z,88.62
2018-10-21T00:24:11.450Z,87.88
2018-10-21T00:26:38.372Z,87.54
2018-10-21T00:29:05.343Z,87.84
2018-10-21T00:31:32.248Z,88.39
2018-10-21T00:33:59.152Z,88.00
2018-10-21T00:36:26.078Z,88.09
2018-10-21T00:38:53.038Z,87.81
2018-10-21T00:41:19.985Z,87.90
2018-10-21T00:43:46.964Z,88.00
2018-10-21T00:46:13.916Z,88.01
2018-10-21T00:48:40.917Z,87.98
2018-10-21T00:51:07.907Z,89.02
2018-10-21T00:53:34.785Z,88.88
2018-10-21T00:56:01.699Z,88.52
2018-10-21T00:58:28.637Z,89.26
2018-10-21T01:00:55.552Z,89.44
2018-10-21T01:03:22.513Z,89.26
2018-10-21T01:05:50.218Z,88.98
2018-10-21T01:08:17.156Z,89.59
2018-10-21T01:10:45.491Z,89.16
2018-10-21T01:13:14.928Z,89.00
2018-10-21T01:15:42.620Z,89.12
2018-10-21T01:18:09.600Z,89.19
2018-10-21T01:20:36.500Z,89.23
2018-10-21T01:23:03.620Z,89.98
2018-10-21T01:25:30.545Z,89.31
2018-10-21T01:27:57.476Z,89.08
2018-10-21T01:30:24.431Z,89.99
2018-10-21T01:32:51.356Z,89.41
2018-10-21T01:35:18.260Z,89.87
2018-10-21T01:37:45.363Z,89.22
2018-10-21T01:40:36.100Z,89.85
2018-10-21T01:43:03.526Z,90.02
2018-10-21T01:45:30.461Z,89.58
2018-10-21T01:47:58.671Z,89.93
2018-10-21T01:50:25.857Z,89.52
2018-10-21T01:52:53.669Z,89.79
2018-10-21T01:55:20.737Z,90.09
2018-10-21T01:57:47.682Z,89.64
2018-10-21T02:00:14.593Z,89.63
2018-10-21T02:02:41.532Z,89.53
2018-10-21T02:05:08.454Z,89.57
2018-10-21T02:07:35.385Z,90.08
2018-10-21T02:10:02.485Z,88.95
2018-10-21T02:12:29.856Z,89.82
2018-10-21T02:14:56.821Z,89.51
2018-10-21T02:17:23.834Z,89.49
2018-10-21T02:19:52.120Z,89.42
2018-10-21T02:22:19.032Z,89.56
2018-10-21T02:24:47.076Z,90.23
2018-10-21T02:27:14.455Z,90.44
2018-10-21T02:29:42.364Z,89.93
2018-10-21T02:32:09.278Z,90.74
2018-10-21T02:34:36.440Z,90.63
2018-10-21T02:37:03.384Z,90.01
2018-10-21T02:39:30.349Z,89.67
2018-10-21T02:41:57.275Z,89.57
2018-10-21T02:44:24.572Z,90.22
2018-10-21T02:46:52.635Z,89.70
2018-10-21T02:49:20.211Z,90.29
2018-10-21T02:51:52.823Z,90.28
2018-10-21T02:54:22.393Z,91.09
2018-10-21T02:56:49.568Z,89.97
2018-10-21T02:59:16.496Z,91.15
2018-10-21T03:01:43.399Z,91.18
2018-10-21T03:04:10.320Z,90.06
2018-10-21T03:06:37.224Z,90.61
2018-10-21T03:09:06.069Z,89.85
2018-10-21T03:11:33.013Z,90.61
2018-10-21T03:13:59.925Z,90.41
2018-10-21T03:16:26.828Z,90.28
2018-10-21T03:18:53.764Z,89.62
2018-10-21T03:21:20.786Z,90.15
2018-10-21T03:23:47.678Z,89.74
2018-10-21T03:26:14.576Z,90.53
2018-10-21T03:28:41.500Z,90.56
2018-10-21T03:31:08.424Z,90.61
2018-10-21T03:33:35.512Z,90.43
2018-10-21T03:36:02.308Z,89.93
2018-10-21T03:38:29.265Z,90.71
2018-10-21T03:40:56.307Z,90.32
2018-10-21T03:43:23.280Z,90.92
2018-10-21T03:45:50.293Z,90.77
2018-10-21T03:48:17.237Z,92.64
2018-10-21T03:50:44.128Z,93.20
2018-10-21T03:53:11.056Z,93.21
2018-10-21T03:55:39.431Z,93.29
2018-10-21T03:58:06.336Z,92.82
2018-10-21T04:00:33.512Z,93.02
2018-10-21T04:03:00.444Z,92.87
2018-10-21T04:05:27.332Z,93.53
2018-10-21T04:07:54.217Z,93.43
2018-10-21T04:10:21.118Z,93.58
2018-10-21T04:12:47.993Z,93.62
2018-10-21T04:15:14.886Z,94.07
2018-10-21T04:17:41.769Z,94.38
2018-10-21T04:20:08.768Z,94.51
2018-10-21T04:22:43.856Z,94.59
2018-10-21T04:25:10.914Z,95.31
2018-10-21T04:27:37.818Z,95.14
2018-10-21T04:30:05.973Z,94.98
2018-10-21T04:32:33.393Z,95.52
2018-10-21T04:35:00.300Z,95.10
2018-10-21T04:37:38.880Z,95.54
2018-10-21T04:40:15.405Z,96.17
2018-10-21T04:42:42.662Z,95.37
2018-10-21T04:45:10.357Z,95.69
2018-10-21T04:47:37.260Z,95.30
2018-10-21T04:50:05.299Z,96.24
2018-10-21T04:52:32.696Z,96.02
2018-10-21T04:55:06.516Z,95.72
2018-10-21T04:57:34.017Z,96.34
2018-10-21T05:00:00.960Z,95.91
2018-10-21T05:02:28.804Z,95.50
2018-10-21T05:04:55.729Z,95.73
2018-10-21T05:07:22.656Z,95.89
2018-10-21T05:09:49.553Z,96.34
2018-10-21T05:12:16.433Z,96.31
2018-10-21T05:14:43.396Z,95.69
2018-10-21T05:17:10.333Z,95.57
2018-10-21T05:19:37.240Z,95.32
2018-10-21T05:22:04.757Z,95.38
2018-10-21T05:24:31.624Z,95.74
2018-10-21T05:26:58.521Z,95.64
2018-10-21T05:29:25.395Z,95.15
2018-10-21T05:31:52.291Z,95.54
2018-10-21T05:34:19.197Z,95.45
2018-10-21T05:36:46.101Z,96.13
2018-10-21T05:39:13.076Z,95.30
2018-10-21T05:41:40.448Z,95.84
2018-10-21T05:44:07.452Z,95.38
2018-10-21T05:46:41.943Z,95.55
2018-10-21T05:49:09.060Z,95.72
2018-10-21T05:51:36.058Z,95.37
2018-10-21T05:54:03.029Z,95.50
2018-10-21T05:56:29.933Z,95.90
2018-10-21T05:58:56.825Z,95.02
2018-10-21T06:01:23.737Z,96.15
2018-10-21T06:03:50.632Z,95.50
2018-10-21T06:06:17.540Z,95.49
2018-10-21T06:08:44.436Z,95.17
2018-10-21T06:11:11.340Z,95.22
2018-10-21T06:13:38.228Z,95.30
2018-10-21T06:16:05.249Z,95.30
2018-10-21T06:18:32.132Z,95.45
2018-10-21T06:21:01.976Z,95.15
2018-10-21T06:23:28.862Z,94.85
2018-10-21T06:25:55.759Z,94.88
2018-10-21T06:28:22.648Z,95.04
2018-10-21T06:30:49.559Z,95.24
2018-10-21T06:33:16.452Z,95.13
2018-10-21T06:35:43.349Z,94.95
2018-10-21T06:38:10.265Z,95.05
2018-10-21T06:43:10.893Z,94.72
2018-10-21T06:45:37.800Z,94.69
2018-10-21T06:48:04.928Z,94.75
2018-10-21T06:50:31.829Z,94.77
2018-10-21T06:52:58.753Z,94.60
2018-10-21T06:55:25.653Z,94.92
2018-10-21T06:57:52.626Z,94.81
2018-10-21T07:00:19.478Z,94.63
2018-10-21T07:02:46.388Z,94.62
2018-10-21T07:05:24.916Z,94.52
2018-10-21T07:07:52.068Z,94.70
2018-10-21T07:10:19.721Z,94.97
2018-10-21T07:12:46.632Z,94.95
2018-10-21T07:15:13.609Z,94.86
2018-10-21T07:17:40.497Z,94.77
2018-10-21T07:20:07.618Z,94.86
2018-10-21T07:22:34.517Z,94.63
2018-10-21T07:25:01.432Z,94.43
2018-10-21T07:27:28.334Z,94.55
2018-10-21T07:29:55.236Z,94.40
2018-10-21T07:32:22.136Z,94.27
2018-10-21T07:34:49.037Z,94.31
2018-10-21T07:37:15.948Z,94.17
2018-10-21T07:39:42.861Z,94.12
2018-10-21T07:42:09.773Z,93.93
2018-10-21T07:44:36.675Z,93.77
2018-10-21T07:47:03.612Z,93.63
2018-10-21T07:49:30.518Z,93.55
2018-10-21T07:51:57.438Z,93.57
2018-10-21T07:54:24.329Z,93.87
2018-10-21T07:56:51.229Z,93.76
2018-10-21T07:59:18.136Z,93.77
2018-10-21T08:01:45.065Z,93.79
2018-10-21T08:04:12.099Z,93.53
2018-10-21T08:06:50.713Z,93.20
2018-10-21T08:09:17.610Z,93.33
2018-10-21T08:11:44.521Z,93.46
2018-10-21T08:14:11.424Z,93.29
2018-10-21T08:16:38.337Z,93.53
2018-10-21T08:19:05.259Z,93.34
2018-10-21T08:21:32.196Z,93.47
2018-10-21T08:23:59.114Z,93.44
2018-10-21T08:26:26.033Z,93.58
2018-10-21T08:28:52.936Z,93.54
2018-10-21T08:31:19.863Z,93.13
2018-10-21T08:33:46.779Z,92.98
2018-10-21T08:36:13.749Z,93.05
2018-10-21T08:38:40.656Z,92.72
2018-10-21T08:41:07.589Z,92.25
2018-10-21T08:43:34.493Z,92.01
2018-10-21T08:46:01.369Z,92.19
2018-10-21T08:48:28.296Z,91.91
2018-10-21T08:50:55.184Z,91.91
2018-10-21T08:53:22.086Z,91.77
2018-10-21T08:55:49.028Z,92.05
2018-10-21T08:58:16.711Z,91.84
2018-10-21T09:00:43.537Z,91.41
2018-10-21T09:03:10.422Z,91.23
2018-10-21T09:05:37.316Z,91.31
2018-10-21T09:08:04.604Z,90.96
2018-10-21T09:10:31.575Z,91.18
2018-10-21T09:12:59.796Z,90.39
2018-10-21T09:15:27.531Z,90.12
2018-10-21T09:17:54.363Z,90.19
2018-10-21T09:20:21.261Z,90.26
2018-10-21T09:22:48.161Z,89.69
2018-10-21T09:25:15.130Z,89.11
2018-10-21T09:27:42.896Z,89.02
2018-10-21T09:30:12.825Z,88.79
2018-10-21T09:32:39.737Z,88.72
2018-10-21T09:35:08.651Z,87.86
2018-10-21T09:37:35.557Z,87.75
2018-10-21T09:40:02.679Z,87.59
2018-10-21T09:42:29.532Z,87.41
2018-10-21T09:44:56.432Z,86.74
2018-10-21T09:47:23.346Z,86.48
2018-10-21T09:49:50.285Z,86.56
2018-10-21T09:52:17.277Z,86.29
2018-10-21T09:54:44.065Z,86.16
2018-10-21T09:57:10.954Z,85.70
2018-10-21T09:59:37.834Z,84.73
2018-10-21T10:02:11.166Z,84.60
2018-10-21T10:04:38.068Z,84.14
2018-10-21T10:07:05.031Z,84.29
2018-10-21T10:09:31.927Z,85.03
2018-10-21T10:11:58.909Z,84.02
2018-10-21T10:14:25.828Z,84.90
2018-10-21T10:16:52.732Z,83.81
2018-10-21T10:19:19.725Z,84.34
2018-10-21T10:21:46.596Z,84.47
2018-10-21T10:24:14.504Z,84.11
2018-10-21T10:26:42.602Z,84.87
2018-10-21T10:29:10.688Z,84.27
2018-10-21T10:31:38.608Z,84.59
2018-10-21T10:34:05.596Z,83.98
2018-10-21T10:36:32.517Z,84.95
2018-10-21T10:38:59.499Z,84.52
2018-10-21T10:41:26.429Z,84.23
2018-10-21T10:43:54.105Z,83.94
2018-10-21T10:46:21.053Z,84.07
2018-10-21T10:48:47.937Z,83.28
2018-10-21T10:51:14.837Z,84.01
2018-10-21T10:53:41.720Z,83.72
2018-10-21T10:56:08.603Z,82.46
2018-10-21T10:58:35.480Z,83.31
2018-10-21T11:01:02.456Z,83.06
2018-10-21T11:03:29.309Z,82.56
2018-10-21T11:05:56.209Z,82.42
2018-10-21T11:08:29.824Z,82.18
2018-10-21T11:10:56.892Z,83.05
2018-10-21T11:13:23.797Z,82.75
2018-10-21T11:15:50.728Z,83.11
2018-10-21T11:18:17.616Z,82.22
2018-10-21T11:20:45.116Z,83.23
2018-10-21T11:23:12.008Z,83.41
2018-10-21T11:25:38.892Z,82.77
2018-10-21T11:28:05.892Z,82.33
2018-10-21T11:30:32.774Z,82.07
2018-10-21T11:32:59.697Z,82.61
2018-10-21T11:35:26.579Z,82.33
2018-10-21T11:37:53.447Z,82.11
2018-10-21T11:40:20.352Z,81.59
2018-10-21T11:42:47.274Z,82.09
2018-10-21T11:45:14.158Z,82.19
2018-10-21T11:47:41.053Z,81.01
2018-10-21T11:50:07.949Z,80.13
2018-10-21T11:52:34.983Z,81.54
2018-10-21T11:55:01.922Z,80.13
2018-10-21T11:57:28.756Z,80.43
2018-10-21T11:59:55.668Z,80.61
2018-10-21T12:02:22.587Z,80.70
2018-10-21T12:04:49.484Z,80.27
2018-10-21T12:07:16.435Z,79.96
2018-10-21T12:09:43.288Z,79.65
2018-10-21T12:12:10.220Z,78.55
2018-10-21T12:14:37.105Z,78.48
2018-10-21T12:17:04.282Z,79.19
2018-10-21T12:19:31.183Z,79.27
2018-10-21T12:21:58.089Z,78.37
2018-10-21T12:24:24.985Z,78.34
2018-10-21T12:26:51.942Z,78.80
2018-10-21T12:29:18.932Z,78.87
2018-10-21T12:31:45.773Z,79.56
2018-10-21T12:34:12.661Z,78.81
2018-10-21T12:36:39.564Z,78.69
2018-10-21T12:39:07.688Z,78.02
2018-10-21T12:41:34.606Z,78.05
2018-10-21T12:44:01.508Z,76.90
2018-10-21T12:46:28.420Z,76.62
2018-10-21T12:48:55.333Z,76.44
2018-10-21T12:51:22.253Z,75.93
2018-10-21T12:53:49.194Z,75.57
2018-10-21T12:56:16.095Z,75.95
2018-10-21T12:58:43.028Z,76.39
2018-10-21T13:01:10.038Z,76.16
2018-10-21T13:03:36.918Z,75.11
2018-10-21T13:06:03.826Z,75.49
2018-10-21T13:08:30.748Z,75.99
2018-10-21T13:10:57.653Z,76.27
2018-10-21T13:13:24.568Z,76.12
2018-10-21T13:15:51.457Z,75.39
2018-10-21T13:18:18.374Z,75.16
2018-10-21T13:20:45.266Z,76.02
2018-10-21T13:23:12.175Z,75.49
2018-10-21T13:25:39.056Z,75.00
2018-10-21T13:28:06.013Z,75.01
2018-10-21T13:30:32.892Z,75.67
2018-10-21T13:32:59.792Z,76.13
2018-10-21T13:35:26.696Z,76.49
2018-10-21T13:37:53.591Z,75.76
2018-10-21T13:40:20.599Z,76.10
2018-10-21T13:42:47.433Z,75.35
2018-10-21T13:45:14.319Z,76.25
2018-10-21T13:47:41.240Z,77.34
2018-10-21T13:50:08.171Z,76.08
2018-10-21T13:52:35.136Z,75.75
2018-10-21T13:55:02.027Z,76.17
2018-10-21T13:57:28.948Z,76.60
2018-10-21T13:59:55.847Z,76.51
2018-10-21T14:02:22.740Z,76.03
2018-10-21T14:04:49.641Z,76.38
2018-10-21T14:07:16.572Z,76.29
2018-10-21T14:09:43.456Z,76.65
2018-10-21T14:12:10.384Z,76.83
2018-10-21T14:14:37.284Z,77.42
2018-10-21T14:17:04.226Z,77.45
2018-10-21T14:19:31.124Z,77.04
2018-10-21T14:21:58.091Z,78.12
2018-10-21T14:24:24.980Z,77.89
2018-10-21T14:26:51.865Z,78.30
2018-10-21T14:29:18.790Z,77.76
2018-10-21T14:31:45.684Z,78.05
2018-10-21T14:34:12.587Z,77.98
2018-10-21T14:36:39.473Z,77.61
2018-10-21T14:39:08.259Z,77.56
2018-10-21T14:41:35.140Z,78.32
2018-10-21T14:44:02.050Z,77.43
2018-10-21T14:46:28.951Z,76.72
2018-10-21T14:48:55.846Z,77.39
2018-10-21T14:51:22.738Z,77.32
2018-10-21T14:53:49.644Z,75.90
2018-10-21T14:56:16.589Z,76.15
2018-10-21T14:58:43.444Z,75.78
2018-10-21T15:01:10.531Z,76.18
2018-10-21T15:03:37.523Z,75.50
2018-10-21T15:06:04.347Z,76.14
2018-10-21T15:08:31.233Z,75.84
2018-10-21T15:10:58.116Z,75.74
2018-10-21T15:13:24.997Z,76.24
2018-10-21T15:15:51.889Z,76.12
2018-10-21T15:18:18.912Z,76.27
2018-10-21T15:20:45.692Z,77.17
2018-10-21T15:23:12.688Z,77.33
2018-10-21T15:25:39.525Z,77.49
2018-10-21T15:28:06.477Z,77.19
2018-10-21T15:30:33.346Z,77.66
2018-10-21T15:33:00.238Z,77.49
2018-10-21T15:35:27.136Z,77.47
2018-10-21T15:37:54.041Z,77.32
2018-10-21T15:40:21.072Z,77.55
2018-10-21T15:42:47.981Z,78.12
2018-10-21T15:45:14.780Z,77.94
2018-10-21T15:47:41.659Z,78.16
2018-10-21T15:50:08.877Z,77.96
2018-10-21T15:52:35.729Z,78.26
2018-10-21T15:55:02.646Z,78.45
2018-10-21T15:57:29.560Z,78.41
2018-10-21T15:59:56.460Z,78.13
2018-10-21T16:02:23.415Z,78.50
2018-10-21T16:04:50.292Z,78.54
2018-10-21T16:07:17.182Z,78.80
2018-10-21T16:09:44.093Z,78.68
2018-10-21T16:12:11.004Z,78.58
2018-10-21T16:14:37.970Z,78.41
2018-10-21T16:17:05.036Z,78.46
2018-10-21T16:19:31.967Z,78.67
2018-10-21T16:21:58.856Z,78.54
2018-10-21T16:24:25.765Z,78.41
2018-10-21T16:26:52.669Z,78.72
2018-10-21T16:29:19.560Z,78.48
2018-10-21T16:31:46.537Z,78.31
2018-10-21T16:34:14.198Z,78.60
2018-10-21T16:36:41.037Z,78.53
2018-10-21T16:39:08.927Z,78.79
2018-10-21T16:41:35.789Z,78.51
2018-10-21T16:44:02.696Z,78.59
2018-10-21T16:46:29.592Z,78.63
2018-10-21T16:48:56.496Z,78.66
2018-10-21T16:51:23.450Z,78.33
2018-10-21T16:53:50.325Z,78.56
2018-10-21T16:56:17.242Z,78.47
2018-10-21T16:58:44.141Z,78.50
2018-10-21T17:01:11.075Z,78.50
2018-10-21T17:03:38.079Z,78.48
2018-10-21T17:06:04.862Z,77.76
2018-10-21T17:08:31.748Z,77.84
2018-10-21T17:10:58.795Z,77.84
2018-10-21T17:13:25.578Z,77.78
2018-10-21T17:15:52.476Z,77.52
2018-10-21T17:18:19.357Z,77.89
2018-10-21T17:20:46.261Z,77.83
2018-10-21T17:23:13.161Z,78.23
2018-10-21T17:25:40.051Z,78.71
2018-10-21T17:28:06.958Z,78.83
2018-10-21T17:30:33.930Z,79.03
2018-10-21T17:33:00.728Z,79.36
2018-10-21T17:35:27.685Z,79.25
2018-10-21T17:37:54.584Z,79.42
2018-10-21T17:40:21.492Z,79.52
2018-10-21T17:42:48.371Z,79.61
2018-10-21T17:45:15.350Z,79.88
2018-10-21T17:47:42.282Z,80.00
2018-10-21T17:50:10.659Z,79.92
2018-10-21T17:52:37.692Z,80.19
2018-10-21T17:55:04.527Z,80.00
2018-10-21T17:57:31.448Z,80.37
2018-10-21T17:59:58.410Z,80.50
2018-10-21T18:02:25.420Z,80.71
2018-10-21T18:04:52.292Z,80.44
2018-10-21T18:07:19.208Z,79.94
2018-10-21T18:09:46.096Z,80.61
2018-10-21T18:12:12.992Z,80.58
2018-10-21T18:14:39.896Z,80.65
2018-10-21T18:17:06.813Z,80.46
2018-10-21T18:19:33.718Z,80.37
2018-10-21T18:22:00.616Z,80.34
2018-10-21T18:24:27.519Z,80.29
2018-10-21T18:26:54.416Z,80.05
2018-10-21T18:29:21.565Z,80.38
2018-10-21T18:31:48.555Z,80.03
2018-10-21T18:34:15.795Z,80.68
2018-10-21T18:36:42.765Z,80.88
2018-10-21T18:39:10.411Z,80.92
2018-10-21T18:41:37.779Z,81.03
2018-10-21T18:44:05.437Z,81.55
2018-10-21T18:46:32.500Z,81.44
2018-10-21T18:49:00.269Z,81.09
2018-10-21T18:51:27.250Z,81.31
2018-10-21T18:53:54.347Z,80.90
2018-10-21T18:56:21.904Z,81.12
2018-10-21T18:58:48.970Z,81.27
2018-10-21T19:01:15.927Z,81.52
2018-10-21T19:03:42.811Z,81.50
2018-10-21T19:06:09.693Z,81.58
2018-10-21T19:08:36.575Z,82.03
2018-10-21T19:11:03.528Z,82.13
2018-10-21T19:13:30.675Z,81.96
2018-10-21T19:15:57.711Z,81.98
2018-10-21T19:18:24.612Z,82.00
2018-10-21T19:20:51.605Z,81.52
2018-10-21T19:23:18.569Z,81.93
2018-10-21T19:25:45.493Z,82.11
2018-10-21T19:28:12.511Z,81.91
2018-10-21T19:30:39.444Z,82.59
2018-10-21T19:33:06.657Z,82.39
2018-10-21T19:35:33.576Z,83.20
2018-10-21T19:38:00.477Z,82.71
2018-10-21T19:40:27.380Z,83.14
2018-10-21T19:42:54.272Z,82.53
2018-10-21T19:45:21.172Z,82.36
2018-10-21T19:47:48.058Z,82.09
2018-10-21T19:50:15.797Z,82.68
2018-10-21T19:52:43.025Z,81.99
2018-10-21T19:55:10.383Z,81.92
2018-10-21T19:57:37.159Z,81.78
2018-10-21T20:00:06.058Z,81.98
2018-10-21T20:02:32.995Z,81.87
2018-10-21T20:04:59.891Z,81.81
2018-10-21T20:07:26.894Z,81.74
2018-10-21T20:09:53.914Z,81.85
2018-10-21T20:12:21.145Z,81.78
2018-10-21T20:14:48.485Z,81.60
2018-10-21T20:17:15.368Z,81.78
2018-10-21T20:19:42.253Z,81.61
2018-10-21T20:22:10.275Z,81.55
2018-10-21T20:24:37.186Z,81.56
2018-10-21T20:27:04.445Z,81.42
2018-10-21T20:29:31.353Z,81.72
2018-10-21T20:31:58.228Z,81.29
2018-10-21T20:34:25.113Z,81.07
2018-10-21T20:36:52.158Z,81.23
2018-10-21T20:39:19.139Z,81.48
2018-10-21T20:41:46.059Z,81.67
2018-10-21T20:44:12.988Z,81.33
2018-10-21T20:46:39.825Z,81.54
2018-10-21T20:49:06.708Z,81.44
2018-10-21T20:51:33.742Z,81.40
2018-10-21T20:54:00.675Z,81.45
2018-10-21T20:56:27.776Z,81.57
2018-10-21T20:58:54.718Z,81.56
2018-10-21T21:01:21.617Z,81.39
2018-10-21T21:03:48.505Z,81.31
2018-10-21T21:06:15.443Z,81.17
2018-10-21T21:08:42.300Z,81.35
2018-10-21T21:11:09.842Z,81.34
2018-10-21T21:13:36.749Z,81.21
2018-10-21T21:16:04.135Z,81.37
2018-10-21T21:18:30.988Z,81.33
2018-10-21T21:20:57.894Z,81.29
2018-10-21T21:23:24.780Z,81.39
2018-10-21T21:25:51.664Z,81.24
2018-10-21T21:28:18.551Z,81.11
2018-10-21T21:30:45.514Z,81.23
2018-10-21T21:33:12.381Z,81.19
2018-10-21T21:35:39.276Z,81.15
2018-10-21T21:38:06.196Z,81.31
2018-10-21T21:40:33.093Z,81.10
2018-10-21T21:43:00.372Z,81.07
2018-10-21T21:45:27.256Z,80.96
2018-10-21T21:47:54.351Z,81.22
2018-10-21T21:50:21.204Z,81.56
2018-10-21T21:52:48.148Z,81.24
2018-10-21T21:55:15.100Z,81.53
2018-10-21T21:57:41.980Z,81.40
2018-10-21T22:00:11.771Z,81.17
2018-10-21T22:02:38.660Z,80.94
2018-10-21T22:05:07.080Z,80.95
2018-10-21T22:07:34.504Z,80.74
2018-10-21T22:10:01.490Z,81.33
2018-10-21T22:12:30.351Z,81.43
2018-10-21T22:14:57.320Z,81.98
2018-10-21T22:17:24.290Z,81.82
2018-10-21T22:19:51.204Z,81.79
2018-10-21T22:22:18.194Z,81.62
2018-10-21T22:24:45.037Z,81.56
2018-10-21T22:27:11.933Z,81.52
2018-10-21T22:29:38.886Z,81.78
2018-10-21T22:32:05.791Z,81.57
2018-10-21T22:34:32.692Z,81.19
2018-10-21T22:36:59.596Z,81.35
2018-10-21T22:39:26.535Z,81.13
2018-10-21T22:41:53.534Z,81.34
2018-10-21T22:44:20.602Z,80.89
2018-10-21T22:46:47.788Z,80.54
2018-10-21T22:49:14.545Z,80.61
2018-10-21T22:51:42.492Z,79.97
2018-10-21T22:54:09.415Z,79.77
2018-10-21T22:56:36.293Z,79.74
2018-10-21T22:59:03.216Z,79.35
2018-10-21T23:01:30.107Z,79.24
2018-10-21T23:03:56.995Z,78.81
2018-10-21T23:06:23.893Z,79.11
2018-10-21T23:08:50.784Z,79.04
2018-10-21T23:11:17.665Z,78.98
2018-10-21T23:13:44.535Z,78.81
2018-10-21T23:16:11.492Z,78.53
2018-10-21T23:18:38.363Z,78.77
2018-10-21T23:21:05.227Z,78.51
2018-10-21T23:23:32.112Z,78.65
2018-10-21T23:25:59.007Z,78.42
2018-10-21T23:28:25.884Z,78.46
2018-10-21T23:30:52.781Z,78.58
2018-10-21T23:33:19.676Z,78.57
2018-10-21T23:35:46.563Z,78.69
2018-10-21T23:38:13.462Z,78.36
2018-10-21T23:40:40.356Z,78.24
2018-10-21T23:43:07.249Z,78.37
2018-10-21T23:45:34.141Z,78.36
2018-10-21T23:48:01.080Z,78.19
2018-10-21T23:53:01.595Z,78.13
2018-10-21T23:55:28.477Z,78.23
2018-10-21T23:57:55.398Z,78.26
